createdAt,value
2022-12-27T00:00:29.427Z,100629.91
2022-12-27T00:01:32.055Z,100633.47
2022-12-27T00:02:37.071Z,100638.94
2022-12-27T00:03:40.020Z,100638.34
2022-12-27T00:04:42.308Z,100637.50
2022-12-27T00:05:45.733Z,100639.41
2022-12-27T00:06:48.821Z,100644.25
2022-12-27T00:07:51.066Z,100642.59
2022-12-27T00:08:54.329Z,100653.56
2022-12-27T00:09:56.899Z,100654.38
2022-12-27T00:11:15.705Z,100655.44
2022-12-27T00:12:17.866Z,100651.88
2022-12-27T00:13:20.071Z,100648.50
2022-12-27T00:14:22.250Z,100655.66
2022-12-27T00:15:24.403Z,100656.72
2022-12-27T00:16:26.693Z,100657.81
2022-12-27T00:17:28.898Z,100656.94
2022-12-27T00:18:31.133Z,100651.69
2022-12-27T00:19:33.369Z,100655.25
2022-12-27T00:20:35.571Z,100658.22
2022-12-27T00:21:38.003Z,100662.88
2022-12-27T00:22:41.211Z,100665.63
2022-12-27T00:23:46.146Z,100667.31
2022-12-27T00:24:48.658Z,100655.72
2022-12-27T00:25:50.865Z,100659.28
2022-12-27T00:26:53.134Z,100654.88
2022-12-27T00:27:56.589Z,100651.06
2022-12-27T00:28:59.390Z,100662.25
2022-12-27T00:30:01.719Z,100671.31
2022-12-27T00:31:05.619Z,100664.16
2022-12-27T00:32:08.000Z,100679.72
2022-12-27T00:33:10.164Z,100681.66
2022-12-27T00:34:13.556Z,100690.69
2022-12-27T00:35:15.916Z,100688.19
2022-12-27T00:36:22.661Z,100693.66
2022-12-27T00:37:24.885Z,100695.56
2022-12-27T00:38:27.842Z,100694.72
2022-12-27T00:39:30.084Z,100700.19
2022-12-27T00:40:32.576Z,100700.41
2022-12-27T00:41:34.868Z,100709.50
2022-12-27T00:42:37.102Z,100704.19
2022-12-27T00:43:39.480Z,100707.81
2022-12-27T00:44:43.356Z,100704.19
2022-12-27T00:45:46.141Z,100704.19
2022-12-27T00:46:48.384Z,100706.13
2022-12-27T00:47:50.669Z,100708.22
2022-12-27T00:48:53.892Z,100709.06
2022-12-27T00:49:56.772Z,100721.91
2022-12-27T00:51:01.765Z,100721.09
2022-12-27T00:52:04.203Z,100713.69
2022-12-27T00:53:07.092Z,100717.72
2022-12-27T00:54:09.345Z,100709.72
2022-12-27T00:55:11.739Z,100711.41
2022-12-27T00:56:19.771Z,100714.16
2022-12-27T00:57:22.030Z,100714.38
2022-12-27T00:58:24.431Z,100721.75
2022-12-27T00:59:26.648Z,100721.75
2022-12-27T01:00:28.961Z,100717.31
2022-12-27T01:01:34.954Z,100728.06
2022-12-27T01:02:38.804Z,100727.22
2022-12-27T01:03:41.235Z,100733.75
2022-12-27T01:04:43.529Z,100732.91
2022-12-27T01:05:46.206Z,100737.34
2022-12-27T01:06:48.357Z,100729.34
2022-12-27T01:07:50.605Z,100740.06
2022-12-27T01:08:52.765Z,100740.28
2022-12-27T01:09:55.023Z,100738.59
2022-12-27T01:10:57.250Z,100739.63
2022-12-27T01:11:59.433Z,100742.38
2022-12-27T01:13:04.052Z,100747.00
2022-12-27T01:14:06.274Z,100748.91
2022-12-27T01:15:29.024Z,100746.81
2022-12-27T10:42:18.460Z,101163.28
2022-12-27T10:43:30.688Z,101165.56
2022-12-27T10:44:32.919Z,101174.69
2022-12-27T10:45:41.814Z,101173.41
2022-12-27T10:46:51.363Z,101173.75
2022-12-27T10:48:00.142Z,101174.63
2022-12-27T10:49:24.484Z,101185.81
2022-12-27T10:50:29.405Z,101182.81
2022-12-27T10:51:40.463Z,101169.44
2022-12-27T10:52:44.044Z,101182.16
2022-12-27T10:53:48.409Z,101174.25
2022-12-27T10:54:52.799Z,101166.38
2022-12-27T10:56:09.606Z,101173.34
2022-12-27T10:57:30.689Z,101175.66
2022-12-27T10:58:45.894Z,101183.47
2022-12-27T11:00:16.527Z,101184.94
2022-12-27T11:01:28.729Z,101182.78
2022-12-27T11:02:32.011Z,101178.94
2022-12-27T11:03:34.272Z,101181.47
2022-12-27T11:04:36.553Z,101183.16
2022-12-27T11:05:40.219Z,101180.22
2022-12-27T11:06:46.629Z,101184.41
2022-12-27T11:07:49.200Z,101174.25
2022-12-27T11:08:53.092Z,101190.31
2022-12-27T11:10:10.029Z,101184.56
2022-12-27T11:11:32.167Z,101180.75
2022-12-27T11:12:36.265Z,101175.00
2022-12-27T11:13:38.531Z,101184.97
2022-12-27T11:15:13.804Z,101187.50
2022-12-27T11:16:32.357Z,101184.72
2022-12-27T11:17:42.586Z,101190.47
2022-12-27T11:19:04.735Z,101192.16
2022-12-27T11:20:23.557Z,101191.31
2022-12-27T11:21:28.295Z,101190.72
2022-12-27T11:22:30.590Z,101186.91
2022-12-27T11:23:43.271Z,101185.78
2022-12-27T11:24:56.780Z,101203.44
2022-12-27T11:26:04.308Z,101200.69
2022-12-27T11:27:06.608Z,101202.56
2022-12-27T11:28:32.380Z,101202.56
2022-12-27T11:29:34.779Z,101202.81
2022-12-27T11:30:41.780Z,101203.03
2022-12-27T11:31:48.616Z,101199.41
2022-12-27T11:32:52.061Z,101201.81
2022-12-27T11:33:58.526Z,101207.53
2022-12-27T11:35:00.733Z,101208.78
2022-12-27T11:36:03.969Z,101210.72
2022-12-27T11:37:14.364Z,101209.03
2022-12-27T11:38:31.451Z,101213.94
2022-12-27T11:39:47.149Z,101213.31
2022-12-27T11:41:27.574Z,101210.16
2022-12-27T11:42:47.618Z,101216.75
2022-12-27T11:44:00.035Z,101207.25
2022-12-27T11:45:02.171Z,101201.38
2022-12-27T11:46:13.981Z,101207.53
2022-12-27T11:47:28.715Z,101204.38
2022-12-27T11:48:38.794Z,101202.94
2022-12-27T11:49:50.874Z,101208.91
2022-12-27T11:51:14.003Z,101202.16
2022-12-27T11:52:37.609Z,101208.56
2022-12-27T11:54:17.271Z,101199.91
2022-12-27T11:55:48.201Z,101202.28
2022-12-27T11:57:00.244Z,101197.44
2022-12-27T11:58:39.883Z,101209.09
2022-12-27T11:59:56.133Z,101207.63
2022-12-27T12:01:25.725Z,101192.66
2022-12-27T12:02:39.813Z,101191.66
2022-12-27T12:03:45.060Z,101192.69
2022-12-27T12:05:26.449Z,101206.06
2022-12-27T12:06:40.281Z,101199.31
2022-12-27T12:08:40.760Z,101184.09
2022-12-27T12:09:52.041Z,101193.88
2022-12-27T12:11:22.585Z,101195.38
2022-12-27T12:12:58.405Z,101197.72
2022-12-27T12:14:15.136Z,101199.00
2022-12-27T12:16:00.199Z,101194.19
2022-12-27T12:17:14.558Z,101192.72
2022-12-27T12:18:43.888Z,101185.94
2022-12-27T12:20:04.919Z,101180.91
2022-12-27T12:21:26.863Z,101184.09
2022-12-27T12:22:47.965Z,101184.75
2022-12-27T12:24:26.100Z,101189.00
2022-12-27T12:25:55.586Z,101194.31
2022-12-27T12:27:16.617Z,101203.84
2022-12-27T12:30:27.198Z,101193.13
2022-12-27T12:31:46.669Z,101199.03
2022-12-27T12:33:13.333Z,101203.06
2022-12-27T12:34:41.707Z,101198.00
2022-12-27T12:35:59.743Z,101204.78
2022-12-27T12:37:37.110Z,101203.09
2022-12-27T12:38:47.780Z,101192.56
2022-12-27T12:40:04.972Z,101200.16
2022-12-27T12:41:29.036Z,101199.31
2022-12-27T12:42:52.257Z,101197.81
2022-12-27T12:44:26.674Z,101201.63
2022-12-27T12:46:12.572Z,101198.28
2022-12-27T12:47:44.689Z,101189.38
2022-12-27T12:49:13.392Z,101205.03
2022-12-27T12:50:43.279Z,101210.72
2022-12-27T12:52:10.576Z,101209.91
2022-12-27T12:53:30.021Z,101205.66
2022-12-27T12:55:03.745Z,101202.28
2022-12-27T12:56:27.884Z,101206.13
2022-12-27T12:57:58.553Z,101206.31
2022-12-27T12:59:22.575Z,101201.91
2022-12-27T13:00:36.365Z,101209.28
2022-12-27T13:02:12.738Z,101210.56
2022-12-27T13:03:39.991Z,101211.59
2022-12-27T13:05:13.602Z,101216.50
2022-12-27T13:06:42.085Z,101210.56
2022-12-27T13:08:00.808Z,101213.31
2022-12-27T13:09:37.887Z,101208.03
2022-12-27T13:10:57.813Z,101201.09
2022-12-27T13:12:21.343Z,101212.28
2022-12-27T13:13:48.624Z,101209.75
2022-12-27T13:15:13.275Z,101214.63
2022-12-27T13:16:37.050Z,101204.69
2022-12-27T13:17:53.687Z,101209.34
2022-12-27T13:19:14.139Z,101217.81
2022-12-27T13:20:43.877Z,101212.50
2022-12-27T13:22:11.859Z,101209.75
2022-12-27T13:23:58.095Z,101201.94
2022-12-27T13:25:22.258Z,101209.34
2022-12-27T13:26:43.270Z,101207.66
2022-12-27T13:27:53.229Z,101213.38
2022-12-27T13:29:24.202Z,101207.25
2022-12-27T13:30:45.030Z,101212.13
2022-12-27T13:31:59.265Z,101209.56
2022-12-27T13:33:37.244Z,101217.81
2022-12-27T13:35:21.369Z,101215.50
2022-12-27T13:36:23.512Z,101207.47
2022-12-27T13:38:04.055Z,101214.66
2022-12-27T13:39:36.663Z,101217.59
2022-12-27T13:40:47.697Z,101226.91
2022-12-27T13:42:24.990Z,101221.41
2022-12-27T13:43:36.854Z,101218.88
2022-12-27T13:44:53.896Z,101227.31
2022-12-27T13:46:17.069Z,101225.63
2022-12-27T13:48:16.936Z,101228.59
2022-12-27T13:49:48.119Z,101228.81
2022-12-27T13:51:07.176Z,101228.16
2022-12-27T13:52:24.856Z,101225.41
2022-12-27T13:54:04.969Z,101227.31
2022-12-27T13:55:31.552Z,101231.34
2022-12-27T13:56:55.841Z,101229.66
2022-12-27T13:58:27.931Z,101229.03
2022-12-27T14:00:09.860Z,101236.63
2022-12-27T14:01:41.631Z,101233.25
2022-12-27T14:03:05.147Z,101232.59
2022-12-27T14:04:27.592Z,101231.13
2022-12-27T14:05:41.902Z,101233.03
2022-12-27T14:06:53.453Z,101235.13
2022-12-27T14:08:02.865Z,101236.19
2022-12-27T14:09:39.946Z,101228.16
2022-12-27T14:10:58.583Z,101237.44
2022-12-27T14:12:34.409Z,101232.19
2022-12-27T14:13:41.637Z,101225.88
2022-12-27T14:14:46.672Z,101228.78
2022-12-27T14:15:59.351Z,101229.00
2022-12-27T14:17:34.309Z,101241.91
2022-12-27T14:19:19.521Z,101239.16
2022-12-27T14:21:11.175Z,101239.59
2022-12-27T14:22:57.619Z,101239.75
2022-12-27T14:24:58.551Z,101243.59
2022-12-27T14:26:20.828Z,101247.38
2022-12-27T14:27:44.214Z,101242.09
2022-12-27T14:29:23.971Z,101242.28
2022-12-27T14:30:31.886Z,101238.94
2022-12-27T14:31:58.538Z,101233.44
2022-12-27T14:33:31.529Z,101242.94
2022-12-27T14:34:59.812Z,101235.75
2022-12-27T14:36:31.762Z,101230.47
2022-12-27T14:37:39.685Z,101240.59
2022-12-27T14:39:01.858Z,101236.19
2022-12-27T14:40:32.833Z,101232.78
2022-12-27T14:41:51.812Z,101240.19
2022-12-27T14:43:51.518Z,101234.06
2022-12-27T14:45:30.824Z,101242.50
2022-12-27T14:46:33.007Z,101239.97
2022-12-27T14:48:01.236Z,101241.84
2022-12-27T14:49:32.956Z,101235.53
2022-12-27T14:50:43.994Z,101243.97
2022-12-27T14:52:12.128Z,101243.97
2022-12-27T14:53:47.613Z,101247.75
2022-12-27T14:55:07.744Z,101250.50
2022-12-27T14:56:23.007Z,101259.56
2022-12-27T14:58:06.941Z,101254.28
2022-12-27T14:59:30.699Z,101244.56
2022-12-27T15:01:01.038Z,101243.75
2022-12-27T15:02:13.409Z,101243.97
2022-12-27T15:03:54.767Z,101268.63
2022-12-27T15:05:12.315Z,101249.63
2022-12-27T15:06:44.560Z,101259.75
2022-12-27T15:08:25.396Z,101249.00
2022-12-27T15:09:58.615Z,101259.97
2022-12-27T15:11:19.303Z,101248.34
2022-12-27T15:12:27.557Z,101243.91
2022-12-27T15:13:52.148Z,101252.34
2022-12-27T15:15:10.535Z,101247.91
2022-12-27T15:16:24.803Z,101255.31
2022-12-27T15:18:04.158Z,101251.94
2022-12-27T15:19:27.908Z,101264.16
2022-12-27T15:20:55.061Z,101263.31
2022-12-27T15:22:32.489Z,101270.91
2022-12-27T15:24:03.393Z,101271.09
2022-12-27T15:25:29.975Z,101269.59
2022-12-27T15:26:32.181Z,101272.56
2022-12-27T15:28:13.247Z,101270.03
2022-12-27T15:29:18.569Z,101262.22
2022-12-27T15:30:36.709Z,101267.72
2022-12-27T15:32:13.720Z,101256.31
2022-12-27T15:33:37.485Z,101255.66
2022-12-27T15:35:21.700Z,101252.28
2022-12-27T15:36:43.970Z,101258.16
2022-12-27T15:38:06.990Z,101253.09
2022-12-27T15:39:34.173Z,101257.31
2022-12-27T15:40:47.870Z,101253.06
2022-12-27T15:42:02.185Z,101249.69
2022-12-27T15:43:23.105Z,101258.31
2022-12-27T15:44:34.380Z,101259.56
2022-12-27T15:45:59.329Z,101262.72
2022-12-27T15:47:22.452Z,101263.94
2022-12-27T15:49:12.908Z,101263.50
2022-12-27T15:50:35.960Z,101261.13
2022-12-27T15:52:18.306Z,101263.47
2022-12-27T15:53:41.447Z,101265.75
2022-12-27T15:55:19.196Z,101267.22
2022-12-27T15:57:18.368Z,101267.81
2022-12-27T15:58:41.489Z,101273.91
2022-12-27T15:59:53.378Z,101264.19
2022-12-27T16:01:32.988Z,101263.75
2022-12-27T16:02:49.318Z,101274.25
2022-12-27T16:03:52.690Z,101267.28
2022-12-27T16:05:22.964Z,101266.66
2022-12-27T16:06:34.211Z,101265.31
2022-12-27T16:07:46.450Z,101261.09
2022-12-27T16:09:20.804Z,101262.34
2022-12-27T16:10:35.746Z,101271.78
2022-12-27T16:12:03.081Z,101272.22
2022-12-27T16:13:05.208Z,101278.09
2022-12-27T16:14:24.371Z,101277.44
2022-12-27T16:15:52.126Z,101278.69
2022-12-27T16:17:03.608Z,101275.47
2022-12-27T16:18:31.197Z,101273.97
2022-12-27T16:19:47.639Z,101271.66
2022-12-27T16:20:59.296Z,101272.91
2022-12-27T16:22:01.512Z,101270.56
2022-12-27T16:23:06.846Z,101268.00
2022-12-27T16:24:16.933Z,101273.88
2022-12-27T16:25:31.817Z,101267.56
2022-12-27T16:26:36.555Z,101269.84
2022-12-27T16:27:38.872Z,101268.34
2022-12-27T16:28:42.338Z,101265.81
2022-12-27T16:29:44.851Z,101272.53
2022-12-27T16:30:55.488Z,101279.88
2022-12-27T16:32:18.161Z,101273.97
2022-12-27T16:33:26.339Z,101275.22
2022-12-27T16:34:31.624Z,101279.19
2022-12-27T16:35:33.935Z,101267.56
2022-12-27T16:36:47.863Z,101272.38
2022-12-27T16:37:54.974Z,101274.47
2022-12-27T16:39:12.450Z,101282.03
2022-12-27T16:40:23.968Z,101276.13
2022-12-27T16:41:42.075Z,101277.16
2022-12-27T16:42:47.251Z,101280.25
2022-12-27T16:43:53.113Z,101279.44
2022-12-27T16:45:03.056Z,101280.66
2022-12-27T16:46:31.423Z,101281.91
2022-12-27T16:48:10.243Z,101281.44
2022-12-27T16:49:27.065Z,101283.53
2022-12-27T16:50:56.241Z,101283.72
2022-12-27T16:52:12.666Z,101282.41
2022-12-27T16:53:52.750Z,101279.03
2022-12-27T16:55:18.005Z,101276.66
2022-12-27T16:56:26.974Z,101277.06
2022-12-27T16:57:42.107Z,101286.69
2022-12-27T16:58:44.381Z,101281.22
2022-12-27T16:59:56.967Z,101293.38
2022-12-27T17:01:05.039Z,101290.19
2022-12-27T17:02:32.453Z,101290.38
2022-12-27T17:03:38.457Z,101290.56
2022-12-27T17:04:49.650Z,101278.34
2022-12-27T17:06:22.185Z,101292.16
2022-12-27T17:07:58.662Z,101282.47
2022-12-27T17:09:09.816Z,101284.56
2022-12-27T17:10:27.385Z,101281.16
2022-12-27T17:11:31.788Z,101283.25
2022-12-27T17:12:34.204Z,101280.06
2022-12-27T17:13:46.578Z,101283.81
2022-12-27T17:14:53.776Z,101285.03
2022-12-27T17:16:11.262Z,101284.41
2022-12-27T17:17:22.685Z,101275.53
2022-12-27T17:18:33.051Z,101282.03
2022-12-27T17:19:48.807Z,101281.41
2022-12-27T17:21:00.427Z,101279.88
2022-12-27T17:22:06.873Z,101282.78
2022-12-27T17:23:09.088Z,101281.28
2022-12-27T17:24:20.302Z,101274.31
2022-12-27T17:25:35.595Z,101276.22
2022-12-27T17:27:07.593Z,101277.25
2022-12-27T17:28:19.984Z,101282.69
2022-12-27T17:30:07.293Z,101275.53
2022-12-27T17:31:22.559Z,101276.59
2022-12-27T17:32:41.585Z,101275.94
2022-12-27T17:34:29.210Z,101273.41
2022-12-27T17:35:53.371Z,101279.06
2022-12-27T17:37:11.991Z,101280.91
2022-12-27T17:38:32.033Z,101276.50
2022-12-27T17:40:07.831Z,101274.81
2022-12-27T17:42:05.039Z,101274.13
2022-12-27T17:43:28.862Z,101276.22
2022-12-27T17:44:54.623Z,101269.91
2022-12-27T17:46:13.670Z,101276.38
2022-12-27T17:47:46.293Z,101277.25
2022-12-27T17:48:48.659Z,101268.03
2022-12-27T17:49:54.770Z,101272.63
2022-12-27T17:51:10.532Z,101275.38
2022-12-27T17:52:36.501Z,101272.63
2022-12-27T17:54:11.991Z,101275.16
2022-12-27T17:55:40.436Z,101270.56
2022-12-27T17:57:15.461Z,101265.13
2022-12-27T17:58:17.707Z,101266.97
2022-12-27T17:59:29.269Z,101272.28
2022-12-27T18:00:50.265Z,101275.00
2022-12-27T18:01:56.838Z,101275.00
2022-12-27T18:03:03.966Z,101279.41
2022-12-27T18:04:07.975Z,101276.69
2022-12-27T18:05:14.934Z,101271.06
2022-12-27T18:06:20.541Z,101263.69
2022-12-27T18:07:29.779Z,101274.41
2022-12-27T18:08:36.459Z,101273.59
2022-12-27T18:09:46.215Z,101275.28
2022-12-27T18:10:48.609Z,101276.13
2022-12-27T18:11:50.867Z,101269.63
2022-12-27T18:12:57.776Z,101269.63
2022-12-27T18:14:00.803Z,101265.00
2022-12-27T18:15:13.968Z,101271.97
2022-12-27T18:16:34.537Z,101268.22
2022-12-27T18:17:39.830Z,101268.84
2022-12-27T18:18:47.166Z,101260.50
2022-12-27T18:19:49.329Z,101264.06
2022-12-27T18:20:58.145Z,101253.97
2022-12-27T18:22:03.246Z,101261.13
2022-12-27T18:23:06.190Z,101267.47
2022-12-27T18:24:25.374Z,101270.81
2022-12-27T18:25:33.274Z,101263.31
2022-12-27T18:26:38.436Z,101260.38
2022-12-27T18:27:40.635Z,101257.84
2022-12-27T18:28:43.424Z,101270.28
2022-12-27T18:29:46.661Z,101263.78
2022-12-27T18:30:55.568Z,101269.25
2022-12-27T18:32:08.091Z,101269.03
2022-12-27T18:33:14.014Z,101266.31
2022-12-27T18:34:30.374Z,101263.38
2022-12-27T18:35:34.443Z,101269.53
2022-12-27T18:36:44.723Z,101266.59
2022-12-27T18:37:47.109Z,101255.66
2022-12-27T18:39:04.529Z,101258.19
2022-12-27T18:40:07.281Z,101267.03
2022-12-27T18:41:17.080Z,101259.69
2022-12-27T18:42:31.642Z,101262.03
2022-12-27T18:43:35.221Z,101263.75
2022-12-27T18:44:53.807Z,101259.97
2022-12-27T18:45:57.188Z,101256.22
2022-12-27T18:47:02.651Z,101266.06
2022-12-27T18:48:14.777Z,101256.84
2022-12-27T18:49:29.874Z,101256.66
2022-12-27T18:50:34.532Z,101253.75
2022-12-27T18:51:38.379Z,101252.69
2022-12-27T18:52:45.384Z,101257.13
2022-12-27T18:53:49.536Z,101263.44
2022-12-27T18:54:52.769Z,101257.78
2022-12-27T18:56:16.181Z,101262.22
2022-12-27T18:57:36.402Z,101257.59
2022-12-27T18:58:38.589Z,101258.41
2022-12-27T18:59:40.794Z,101256.56
2022-12-27T19:00:52.257Z,101263.53
2022-12-27T19:02:00.068Z,101260.59
2022-12-27T19:03:18.197Z,101265.03
2022-12-27T19:04:25.962Z,101259.56
2022-12-27T19:05:30.218Z,101261.06
2022-12-27T19:06:32.498Z,101261.06
2022-12-27T19:07:34.877Z,101267.16
2022-12-27T19:09:07.661Z,101258.97
2022-12-27T19:10:17.526Z,101261.50
2022-12-27T19:11:49.447Z,101260.47
2022-12-27T19:12:53.807Z,101261.97
2022-12-27T19:14:02.638Z,101260.25
2022-12-27T19:15:25.780Z,101259.03
2022-12-27T19:16:31.434Z,101259.03
2022-12-27T19:17:38.606Z,101254.22
2022-12-27T19:18:42.152Z,101253.19
2022-12-27T19:19:48.717Z,101254.03
2022-12-27T19:20:55.831Z,101257.44
2022-12-27T19:21:58.657Z,101246.50
2022-12-27T19:23:04.342Z,101241.84
2022-12-27T19:24:27.517Z,101242.72
2022-12-27T19:25:35.354Z,101241.66
2022-12-27T19:26:37.535Z,101248.00
2022-12-27T19:27:40.282Z,101239.59
2022-12-27T19:28:57.198Z,101238.56
2022-12-27T19:29:59.999Z,101234.75
2022-12-27T19:31:18.371Z,101238.34
2022-12-27T19:32:32.843Z,101240.22
2022-12-27T19:33:36.781Z,101238.97
2022-12-27T19:34:44.386Z,101233.72
2022-12-27T19:35:46.599Z,101239.84
2022-12-27T19:36:49.626Z,101236.91
2022-12-27T19:37:54.199Z,101232.69
2022-12-27T19:38:57.407Z,101238.63
2022-12-27T19:40:00.034Z,101235.69
2022-12-27T19:41:04.226Z,101238.41
2022-12-27T19:42:11.759Z,101241.97
2022-12-27T19:43:14.999Z,101239.06
2022-12-27T19:44:18.027Z,101235.28
2022-12-27T19:45:23.284Z,101238.88
2022-12-27T19:46:30.804Z,101245.19
2022-12-27T19:47:36.025Z,101244.13
2022-12-27T19:48:38.619Z,101244.97
2022-12-27T19:49:44.707Z,101241.22
2022-12-27T19:50:55.323Z,101235.72
2022-12-27T19:51:58.851Z,101244.81
2022-12-27T19:53:01.762Z,101235.53
2022-12-27T19:54:18.898Z,101236.19
2022-12-27T19:55:25.901Z,101237.03
2022-12-27T19:56:28.355Z,101236.00
2022-12-27T19:57:32.160Z,101236.00
2022-12-27T19:58:35.055Z,101234.97
2022-12-27T19:59:37.991Z,101236.66
2022-12-27T20:00:41.282Z,101233.91
2022-12-27T20:01:45.759Z,101235.78
2022-12-27T20:02:48.108Z,101230.31
2022-12-27T20:03:50.345Z,101230.97
2022-12-27T20:04:52.581Z,101235.59
2022-12-27T20:06:13.371Z,101238.31
2022-12-27T20:07:21.461Z,101230.13
2022-12-27T20:08:25.098Z,101235.59
2022-12-27T20:09:27.626Z,101230.78
2022-12-27T20:10:30.995Z,101230.97
2022-12-27T20:11:33.365Z,101234.56
2022-12-27T20:12:35.840Z,101240.03
2022-12-27T20:13:38.048Z,101240.69
2022-12-27T20:14:40.478Z,101238.16
2022-12-27T20:15:43.209Z,101244.25
2022-12-27T20:16:46.762Z,101237.09
2022-12-27T20:17:49.647Z,101241.31
2022-12-27T20:18:52.027Z,101240.03
2022-12-27T20:19:54.225Z,101245.28
2022-12-27T20:20:57.517Z,101242.38
2022-12-27T20:21:59.947Z,101245.97
2022-12-27T20:23:02.370Z,101237.94
2022-12-27T20:24:04.878Z,101239.81
2022-12-27T20:25:07.713Z,101230.56
2022-12-27T20:26:11.166Z,101237.09
2022-12-27T20:27:13.495Z,101228.03
2022-12-27T20:28:17.708Z,101238.16
2022-12-27T20:29:23.265Z,101234.56
2022-12-27T20:30:25.462Z,101234.75
2022-12-27T20:31:27.718Z,101235.59
2022-12-27T20:32:30.032Z,101235.59
2022-12-27T20:33:32.218Z,101233.72
2022-12-27T20:34:34.383Z,101239.38
2022-12-27T20:35:37.015Z,101240.22
2022-12-27T20:36:39.284Z,101242.13
2022-12-27T20:37:41.590Z,101229.28
2022-12-27T20:38:44.082Z,101235.78
2022-12-27T20:39:46.248Z,101234.97
2022-12-27T20:40:48.537Z,101242.28
2022-12-27T20:41:50.711Z,101232.22
2022-12-27T20:42:52.923Z,101241.47
2022-12-27T20:43:57.306Z,101248.84
2022-12-27T20:45:00.785Z,101232.44
2022-12-27T20:46:10.758Z,101245.03
2022-12-27T20:47:12.975Z,101240.84
2022-12-27T20:48:15.869Z,101239.75
2022-12-27T20:49:18.041Z,101235.38
2022-12-27T20:50:21.141Z,101240.84
2022-12-27T20:51:27.472Z,101241.66
2022-12-27T20:52:31.348Z,101251.78
2022-12-27T20:53:33.775Z,101233.66
2022-12-27T20:54:35.994Z,101246.47
2022-12-27T20:55:38.299Z,101231.97
2022-12-27T20:56:40.538Z,101231.75
2022-12-27T20:57:45.317Z,101233.88
2022-12-27T20:58:48.283Z,101235.72
2022-12-27T20:59:52.782Z,101241.22
2022-12-27T21:00:54.985Z,101238.66
2022-12-27T21:01:58.310Z,101227.72
2022-12-27T21:03:00.806Z,101238.66
2022-12-27T21:04:04.744Z,101226.03
2022-12-27T21:05:07.932Z,101229.63
2022-12-27T21:06:16.259Z,101228.56
2022-12-27T21:07:19.299Z,101221.44
2022-12-27T21:08:21.523Z,101225.19
2022-12-27T21:09:23.887Z,101220.56
2022-12-27T21:10:26.076Z,101215.09
2022-12-27T21:11:32.452Z,101212.38
2022-12-27T21:12:36.023Z,101219.72
2022-12-27T21:13:39.760Z,101208.78
2022-12-27T21:14:41.909Z,101212.56
2022-12-27T21:15:46.949Z,101207.94
2022-12-27T21:16:49.283Z,101208.13
2022-12-27T21:17:51.578Z,101211.53
2022-12-27T21:18:55.080Z,101207.94
2022-12-27T21:19:57.391Z,101206.25
2022-12-27T21:21:09.653Z,101205.41
2022-12-27T21:22:11.891Z,101212.56
2022-12-27T21:23:14.110Z,101216.34
2022-12-27T21:24:16.275Z,101203.53
2022-12-27T21:25:18.443Z,101205.41
2022-12-27T21:26:23.465Z,101207.28
2022-12-27T21:27:25.732Z,101202.88
2022-12-27T21:28:27.965Z,101203.91
2022-12-27T21:29:30.119Z,101201.16
2022-12-27T21:30:32.419Z,101203.06
2022-12-27T21:31:35.089Z,101202.19
2022-12-27T21:32:37.312Z,101199.47
2022-12-27T21:33:39.807Z,101207.66
2022-12-27T21:34:42.119Z,101192.31
2022-12-27T21:35:44.379Z,101203.25
2022-12-27T21:36:46.618Z,101196.09
2022-12-27T21:37:48.806Z,101194.41
2022-12-27T21:38:52.025Z,101197.13
2022-12-27T21:39:54.168Z,101200.91
2022-12-27T21:40:57.629Z,101188.09
2022-12-27T21:42:00.707Z,101192.69
2022-12-27T21:43:02.877Z,101193.56
2022-12-27T21:44:05.744Z,101189.13
2022-12-27T21:45:08.220Z,101184.50
2022-12-27T21:46:15.149Z,101187.44
2022-12-27T21:47:17.385Z,101184.69
2022-12-27T21:48:19.966Z,101186.59
2022-12-27T21:49:22.140Z,101186.59
2022-12-27T21:50:24.303Z,101174.81
2022-12-27T21:51:28.356Z,101182.16
2022-12-27T21:52:30.614Z,101175.00
2022-12-27T21:53:33.102Z,101175.84
2022-12-27T21:54:36.005Z,101175.00
2022-12-27T21:55:38.816Z,101175.00
2022-12-27T21:56:41.030Z,101172.47
2022-12-27T21:57:46.257Z,101171.63
2022-12-27T21:58:48.958Z,101173.31
2022-12-27T21:59:51.243Z,101174.53
2022-12-27T22:00:57.800Z,101174.38
2022-12-27T22:02:00.414Z,101169.06
2022-12-27T22:03:03.208Z,101170.16
2022-12-27T22:04:06.924Z,101168.25
2022-12-27T22:05:09.479Z,101164.84
2022-12-27T22:06:16.506Z,101160.25
2022-12-27T22:07:18.837Z,101164.00
2022-12-27T22:08:21.074Z,101171.38
2022-12-27T22:09:24.056Z,101165.25
2022-12-27T22:10:26.513Z,101167.78
2022-12-27T22:11:32.760Z,101164.41
2022-12-27T22:12:35.052Z,101163.56
2022-12-27T22:13:37.737Z,101169.03
2022-12-27T22:14:42.967Z,101161.84
2022-12-27T22:15:55.264Z,101166.50
2022-12-27T22:17:03.587Z,101150.09
2022-12-27T22:18:05.840Z,101156.59
2022-12-27T22:19:13.118Z,101168.38
2022-12-27T22:20:15.435Z,101155.75
2022-12-27T22:21:24.154Z,101155.56
2022-12-27T22:22:26.323Z,101158.50
2022-12-27T22:23:33.439Z,101166.03
2022-12-27T22:24:35.717Z,101159.72
2022-12-27T22:25:41.883Z,101158.84
2022-12-27T22:26:44.447Z,101163.50
2022-12-27T22:27:46.578Z,101161.59
2022-12-27T22:28:51.519Z,101158.22
2022-12-27T22:29:53.875Z,101147.28
2022-12-27T22:30:56.376Z,101160.09
2022-12-27T22:31:58.684Z,101153.78
2022-12-27T22:33:00.936Z,101156.72
2022-12-27T22:34:04.451Z,101156.72
2022-12-27T22:35:06.786Z,101155.03
2022-12-27T22:36:15.170Z,101155.88
2022-12-27T22:37:17.420Z,101156.28
2022-12-27T22:38:19.572Z,101154.56
2022-12-27T22:39:21.788Z,101157.13
2022-12-27T22:40:30.882Z,101152.69
2022-12-27T22:41:39.981Z,101154.41
2022-12-27T22:42:42.146Z,101154.56
2022-12-27T22:43:50.195Z,101151.00
2022-12-27T22:44:53.393Z,101149.97
2022-12-27T22:45:55.526Z,101155.44
2022-12-27T22:47:25.550Z,101149.09
2022-12-27T22:48:21.801Z,101155.63
2022-12-27T22:49:24.066Z,101153.94
2022-12-27T22:50:26.248Z,101162.97
2022-12-27T22:51:31.635Z,101152.03
2022-12-27T22:52:33.893Z,101160.25
2022-12-27T22:53:36.183Z,101158.53
2022-12-27T22:55:04.233Z,101154.13
2022-12-27T22:56:00.571Z,101159.41
2022-12-27T22:57:02.702Z,101154.97
2022-12-27T22:58:04.863Z,101151.41
2022-12-27T22:59:11.788Z,101153.06
2022-12-27T23:00:15.151Z,101151.41
2022-12-27T23:01:20.463Z,101146.97
2022-12-27T23:02:22.809Z,101146.13
2022-12-27T23:03:25.235Z,101139.63
2022-12-27T23:04:27.493Z,101140.66
2022-12-27T23:05:29.657Z,101137.91
2022-12-27T23:06:34.124Z,101140.66
2022-12-27T23:08:05.461Z,101138.97
2022-12-27T23:08:58.632Z,101146.31
2022-12-27T23:10:00.808Z,101145.47
2022-12-27T23:11:06.432Z,101147.19
2022-12-27T23:12:08.753Z,101147.34
2022-12-27T23:13:10.896Z,101141.06
2022-12-27T23:14:17.173Z,101144.81
2022-12-27T23:15:19.320Z,101133.06